Antis, Pennsylvania
Current Conditions -  °F | °C
As of 4:53 AM on Monday 22 Dec 2014 (Local Time) from KAOO Reporting Station
Haze Haze  
Wind Chill: 21°   Ceiling: 2900
Heat Index: 21°   Visibility: 6mi
Dew Point: 19°   Wind: 0mph
Humidity: 92%   Direction: NA
Pressure: 30.19"   Gusts: NA
Location:  40.6274°N, 78.3392°W
Report Text: KAOO 220953Z AUTO 00000KT 6SM BR OVC029 M06/M07 A3019 RMK AO2 SLP244 T10611072
Loading
Personal Weather Stations






























Interactive Weather Map New forecast layout! Learn more

10-Day Weather Forecast

Advertisements
Track Severe Weather on mobile